sensor_id;sensor_type;location;lat;lon;timestamp;P1;durP1;ratioP1;P2;durP2;ratioP2
60464;SDS011;46314;52.392;9.758;2023-07-24T00:02:20;2.20;;;1.90;;
60464;SDS011;46314;52.392;9.758;2023-07-24T00:04:48;2.10;;;1.90;;
60464;SDS011;46314;52.392;9.758;2023-07-24T00:07:14;4.63;;;2.10;;
60464;SDS011;46314;52.392;9.758;2023-07-24T00:09:41;2.95;;;1.83;;
60464;SDS011;46314;52.392;9.758;2023-07-24T00:12:08;2.20;;;1.92;;
60464;SDS011;46314;52.392;9.758;2023-07-24T00:14:34;2.13;;;1.92;;
60464;SDS011;46314;52.392;9.758;2023-07-24T00:17:01;2.92;;;2.03;;
60464;SDS011;46314;52.392;9.758;2023-07-24T00:19:27;2.55;;;2.35;;
60464;SDS011;46314;52.392;9.758;2023-07-24T00:21:55;2.35;;;2.00;;
60464;SDS011;46314;52.392;9.758;2023-07-24T00:24:22;2.40;;;2.20;;
60464;SDS011;46314;52.392;9.758;2023-07-24T00:26:48;1.92;;;1.80;;
60464;SDS011;46314;52.392;9.758;2023-07-24T00:29:15;1.95;;;1.73;;
60464;SDS011;46314;52.392;9.758;2023-07-24T00:31:41;2.40;;;2.13;;
60464;SDS011;46314;52.392;9.758;2023-07-24T00:34:08;3.58;;;2.42;;
60464;SDS011;46314;52.392;9.758;2023-07-24T00:36:34;3.38;;;2.40;;
60464;SDS011;46314;52.392;9.758;2023-07-24T00:39:02;2.65;;;1.98;;
60464;SDS011;46314;52.392;9.758;2023-07-24T00:41:28;2.75;;;2.55;;
60464;SDS011;46314;52.392;9.758;2023-07-24T00:43:55;2.53;;;2.28;;
60464;SDS011;46314;52.392;9.758;2023-07-24T00:46:21;2.63;;;2.25;;
60464;SDS011;46314;52.392;9.758;2023-07-24T00:48:49;4.32;;;2.75;;
60464;SDS011;46314;52.392;9.758;2023-07-24T00:51:16;2.72;;;2.53;;
60464;SDS011;46314;52.392;9.758;2023-07-24T00:53:43;3.17;;;2.80;;
60464;SDS011;46314;52.392;9.758;2023-07-24T00:56:11;2.67;;;2.47;;
60464;SDS011;46314;52.392;9.758;2023-07-24T00:58:37;3.30;;;2.80;;
60464;SDS011;46314;52.392;9.758;2023-07-24T01:01:04;2.92;;;2.60;;
60464;SDS011;46314;52.392;9.758;2023-07-24T01:03:31;4.40;;;3.47;;
60464;SDS011;46314;52.392;9.758;2023-07-24T01:06:00;3.25;;;2.95;;
60464;SDS011;46314;52.392;9.758;2023-07-24T01:08:28;3.60;;;3.30;;
60464;SDS011;46314;52.392;9.758;2023-07-24T01:10:55;3.58;;;3.28;;
60464;SDS011;46314;52.392;9.758;2023-07-24T01:13:24;4.22;;;3.83;;
60464;SDS011;46314;52.392;9.758;2023-07-24T01:15:55;3.55;;;3.25;;
60464;SDS011;46314;52.392;9.758;2023-07-24T01:18:26;3.75;;;3.45;;
60464;SDS011;46314;52.392;9.758;2023-07-24T01:20:56;3.80;;;3.50;;
60464;SDS011;46314;52.392;9.758;2023-07-24T01:23:29;3.75;;;3.38;;
60464;SDS011;46314;52.392;9.758;2023-07-24T01:26:09;4.05;;;3.75;;
60464;SDS011;46314;52.392;9.758;2023-07-24T01:28:36;4.20;;;3.80;;
60464;SDS011;46314;52.392;9.758;2023-07-24T01:31:03;3.60;;;3.30;;
60464;SDS011;46314;52.392;9.758;2023-07-24T01:33:29;4.20;;;3.55;;
60464;SDS011;46314;52.392;9.758;2023-07-24T01:35:57;4.07;;;3.67;;
60464;SDS011;46314;52.392;9.758;2023-07-24T01:38:25;4.32;;;3.92;;
60464;SDS011;46314;52.392;9.758;2023-07-24T01:40:52;5.60;;;4.05;;
60464;SDS011;46314;52.392;9.758;2023-07-24T01:43:21;4.57;;;4.05;;
60464;SDS011;46314;52.392;9.758;2023-07-24T01:45:48;3.63;;;3.33;;
60464;SDS011;46314;52.392;9.758;2023-07-24T01:48:14;3.63;;;3.33;;
60464;SDS011;46314;52.392;9.758;2023-07-24T01:50:41;4.35;;;3.95;;
60464;SDS011;46314;52.392;9.758;2023-07-24T01:53:07;4.72;;;4.32;;
60464;SDS011;46314;52.392;9.758;2023-07-24T01:55:34;4.07;;;3.78;;
60464;SDS011;46314;52.392;9.758;2023-07-24T01:58:01;5.15;;;4.07;;
60464;SDS011;46314;52.392;9.758;2023-07-24T02:00:28;5.63;;;4.38;;
60464;SDS011;46314;52.392;9.758;2023-07-24T02:02:55;5.18;;;4.68;;
60464;SDS011;46314;52.392;9.758;2023-07-24T02:05:22;4.68;;;4.28;;
60464;SDS011;46314;52.392;9.758;2023-07-24T02:07:48;4.47;;;4.07;;
60464;SDS011;46314;52.392;9.758;2023-07-24T02:10:15;6.32;;;5.05;;
60464;SDS011;46314;52.392;9.758;2023-07-24T02:12:41;4.60;;;4.10;;
60464;SDS011;46314;52.392;9.758;2023-07-24T02:15:08;4.63;;;4.22;;
60464;SDS011;46314;52.392;9.758;2023-07-24T02:17:37;4.93;;;4.38;;
60464;SDS011;46314;52.392;9.758;2023-07-24T02:20:04;4.50;;;4.10;;
60464;SDS011;46314;52.392;9.758;2023-07-24T02:22:31;5.03;;;4.63;;
60464;SDS011;46314;52.392;9.758;2023-07-24T02:24:57;5.45;;;4.95;;
60464;SDS011;46314;52.392;9.758;2023-07-24T02:27:24;5.65;;;5.15;;
60464;SDS011;46314;52.392;9.758;2023-07-24T02:29:52;6.07;;;5.25;;
60464;SDS011;46314;52.392;9.758;2023-07-24T02:32:18;5.47;;;5.03;;
60464;SDS011;46314;52.392;9.758;2023-07-24T02:34:46;7.63;;;5.40;;
60464;SDS011;46314;52.392;9.758;2023-07-24T02:37:13;4.97;;;4.53;;
60464;SDS011;46314;52.392;9.758;2023-07-24T02:39:39;5.20;;;4.70;;
60464;SDS011;46314;52.392;9.758;2023-07-24T02:42:06;4.82;;;4.43;;
60464;SDS011;46314;52.392;9.758;2023-07-24T02:44:33;5.32;;;4.82;;
60464;SDS011;46314;52.392;9.758;2023-07-24T02:47:00;5.22;;;4.72;;
60464;SDS011;46314;52.392;9.758;2023-07-24T02:49:26;5.00;;;4.47;;
60464;SDS011;46314;52.392;9.758;2023-07-24T02:51:54;5.30;;;4.80;;
60464;SDS011;46314;52.392;9.758;2023-07-24T02:54:20;5.30;;;4.90;;
60464;SDS011;46314;52.392;9.758;2023-07-24T02:56:47;4.50;;;4.03;;
60464;SDS011;46314;52.392;9.758;2023-07-24T02:59:13;5.90;;;4.53;;
60464;SDS011;46314;52.392;9.758;2023-07-24T03:01:40;5.75;;;5.25;;
60464;SDS011;46314;52.392;9.758;2023-07-24T03:04:06;5.45;;;4.53;;
60464;SDS011;46314;52.392;9.758;2023-07-24T03:06:33;5.47;;;4.97;;
60464;SDS011;46314;52.392;9.758;2023-07-24T03:09:01;5.40;;;4.55;;
60464;SDS011;46314;52.392;9.758;2023-07-24T03:11:27;4.88;;;4.38;;
60464;SDS011;46314;52.392;9.758;2023-07-24T03:13:54;4.82;;;4.32;;
60464;SDS011;46314;52.392;9.758;2023-07-24T03:16:20;6.05;;;4.50;;
60464;SDS011;46314;52.392;9.758;2023-07-24T03:18:46;6.15;;;5.55;;
60464;SDS011;46314;52.392;9.758;2023-07-24T03:21:13;5.05;;;4.55;;
60464;SDS011;46314;52.392;9.758;2023-07-24T03:23:39;4.68;;;4.28;;
60464;SDS011;46314;52.392;9.758;2023-07-24T03:26:07;4.57;;;4.18;;
60464;SDS011;46314;52.392;9.758;2023-07-24T03:28:34;5.10;;;4.70;;
60464;SDS011;46314;52.392;9.758;2023-07-24T03:31:00;4.95;;;4.45;;
60464;SDS011;46314;52.392;9.758;2023-07-24T03:33:27;4.60;;;4.20;;
60464;SDS011;46314;52.392;9.758;2023-07-24T03:35:53;4.97;;;4.47;;
60464;SDS011;46314;52.392;9.758;2023-07-24T03:38:20;5.55;;;4.80;;
60464;SDS011;46314;52.392;9.758;2023-07-24T03:40:46;4.32;;;3.95;;
60464;SDS011;46314;52.392;9.758;2023-07-24T03:43:14;4.97;;;4.47;;
60464;SDS011;46314;52.392;9.758;2023-07-24T03:45:41;4.88;;;4.35;;
60464;SDS011;46314;52.392;9.758;2023-07-24T03:48:07;3.88;;;3.50;;
60464;SDS011;46314;52.392;9.758;2023-07-24T03:50:34;4.82;;;3.95;;
60464;SDS011;46314;52.392;9.758;2023-07-24T03:53:00;4.85;;;3.72;;
60464;SDS011;46314;52.392;9.758;2023-07-24T03:55:27;3.65;;;3.25;;
60464;SDS011;46314;52.392;9.758;2023-07-24T03:57:53;3.53;;;3.22;;
60464;SDS011;46314;52.392;9.758;2023-07-24T04:00:21;5.32;;;2.80;;
60464;SDS011;46314;52.392;9.758;2023-07-24T04:02:49;3.60;;;3.30;;
60464;SDS011;46314;52.392;9.758;2023-07-24T04:05:15;3.28;;;2.85;;
60464;SDS011;46314;52.392;9.758;2023-07-24T04:07:42;2.97;;;2.72;;
60464;SDS011;46314;52.392;9.758;2023-07-24T04:10:09;3.05;;;2.75;;
60464;SDS011;46314;52.392;9.758;2023-07-24T04:12:35;3.63;;;2.50;;
60464;SDS011;46314;52.392;9.758;2023-07-24T04:15:02;3.63;;;2.55;;
60464;SDS011;46314;52.392;9.758;2023-07-24T04:17:30;4.15;;;2.88;;
60464;SDS011;46314;52.392;9.758;2023-07-24T04:19:56;5.18;;;3.13;;
60464;SDS011;46314;52.392;9.758;2023-07-24T04:22:23;6.22;;;2.80;;
60464;SDS011;46314;52.392;9.758;2023-07-24T04:24:49;3.85;;;3.00;;
60464;SDS011;46314;52.392;9.758;2023-07-24T04:27:16;3.38;;;2.47;;
60464;SDS011;46314;52.392;9.758;2023-07-24T04:29:43;3.85;;;2.78;;
60464;SDS011;46314;52.392;9.758;2023-07-24T04:32:09;3.53;;;2.30;;
60464;SDS011;46314;52.392;9.758;2023-07-24T04:34:37;4.07;;;2.97;;
60464;SDS011;46314;52.392;9.758;2023-07-24T04:37:04;4.03;;;3.05;;
60464;SDS011;46314;52.392;9.758;2023-07-24T04:39:30;3.28;;;2.95;;
60464;SDS011;46314;52.392;9.758;2023-07-24T04:41:57;3.50;;;2.88;;
60464;SDS011;46314;52.392;9.758;2023-07-24T04:44:23;3.78;;;2.95;;
60464;SDS011;46314;52.392;9.758;2023-07-24T04:46:50;3.80;;;3.20;;
60464;SDS011;46314;52.392;9.758;2023-07-24T04:49:16;3.60;;;2.80;;
60464;SDS011;46314;52.392;9.758;2023-07-24T04:51:44;5.28;;;3.00;;
60464;SDS011;46314;52.392;9.758;2023-07-24T04:54:11;4.13;;;2.72;;
60464;SDS011;46314;52.392;9.758;2023-07-24T04:56:37;2.63;;;2.40;;
60464;SDS011;46314;52.392;9.758;2023-07-24T04:59:04;2.75;;;2.42;;
60464;SDS011;46314;52.392;9.758;2023-07-24T05:01:30;4.20;;;2.75;;
60464;SDS011;46314;52.392;9.758;2023-07-24T05:03:57;4.05;;;3.20;;
60464;SDS011;46314;52.392;9.758;2023-07-24T05:06:23;3.33;;;2.80;;
60464;SDS011;46314;52.392;9.758;2023-07-24T05:08:51;3.20;;;2.90;;
60464;SDS011;46314;52.392;9.758;2023-07-24T05:11:18;4.53;;;2.53;;
60464;SDS011;46314;52.392;9.758;2023-07-24T05:13:45;3.17;;;2.78;;
60464;SDS011;46314;52.392;9.758;2023-07-24T05:16:11;3.60;;;2.70;;
60464;SDS011;46314;52.392;9.758;2023-07-24T05:18:38;4.80;;;2.60;;
60464;SDS011;46314;52.392;9.758;2023-07-24T05:21:06;7.57;;;2.47;;
60464;SDS011;46314;52.392;9.758;2023-07-24T05:23:32;4.35;;;2.80;;
60464;SDS011;46314;52.392;9.758;2023-07-24T05:26:01;3.55;;;2.35;;
60464;SDS011;46314;52.392;9.758;2023-07-24T05:28:28;2.65;;;2.40;;
60464;SDS011;46314;52.392;9.758;2023-07-24T05:30:56;3.08;;;2.78;;
60464;SDS011;46314;52.392;9.758;2023-07-24T05:33:26;3.35;;;2.15;;
60464;SDS011;46314;52.392;9.758;2023-07-24T05:35:56;3.20;;;2.35;;
60464;SDS011;46314;52.392;9.758;2023-07-24T05:38:24;3.28;;;2.83;;
60464;SDS011;46314;52.392;9.758;2023-07-24T05:40:53;5.50;;;2.60;;
60464;SDS011;46314;52.392;9.758;2023-07-24T05:43:22;3.78;;;2.28;;
60464;SDS011;46314;52.392;9.758;2023-07-24T05:45:48;4.13;;;2.67;;
60464;SDS011;46314;52.392;9.758;2023-07-24T05:48:15;3.78;;;2.60;;
60464;SDS011;46314;52.392;9.758;2023-07-24T05:50:41;3.15;;;2.40;;
60464;SDS011;46314;52.392;9.758;2023-07-24T05:53:08;3.00;;;2.33;;
60464;SDS011;46314;52.392;9.758;2023-07-24T05:55:35;3.10;;;2.05;;
60464;SDS011;46314;52.392;9.758;2023-07-24T05:58:01;4.70;;;2.58;;
60464;SDS011;46314;52.392;9.758;2023-07-24T06:00:29;3.22;;;2.28;;
60464;SDS011;46314;52.392;9.758;2023-07-24T06:02:56;3.35;;;2.58;;
60464;SDS011;46314;52.392;9.758;2023-07-24T06:05:22;3.13;;;2.47;;
60464;SDS011;46314;52.392;9.758;2023-07-24T06:07:49;2.75;;;2.45;;
60464;SDS011;46314;52.392;9.758;2023-07-24T06:10:15;5.55;;;2.60;;
60464;SDS011;46314;52.392;9.758;2023-07-24T06:12:42;3.35;;;2.53;;
60464;SDS011;46314;52.392;9.758;2023-07-24T06:15:09;3.40;;;2.60;;
60464;SDS011;46314;52.392;9.758;2023-07-24T06:17:37;4.30;;;2.47;;
60464;SDS011;46314;52.392;9.758;2023-07-24T06:20:04;4.30;;;2.40;;
60464;SDS011;46314;52.392;9.758;2023-07-24T06:22:32;3.35;;;2.83;;
60464;SDS011;46314;52.392;9.758;2023-07-24T06:24:58;4.30;;;2.50;;
60464;SDS011;46314;52.392;9.758;2023-07-24T06:27:25;3.53;;;2.53;;
60464;SDS011;46314;52.392;9.758;2023-07-24T06:29:51;5.10;;;3.20;;
60464;SDS011;46314;52.392;9.758;2023-07-24T06:32:21;4.55;;;2.70;;
60464;SDS011;46314;52.392;9.758;2023-07-24T06:34:49;6.03;;;3.10;;
60464;SDS011;46314;52.392;9.758;2023-07-24T06:37:15;5.00;;;2.85;;
60464;SDS011;46314;52.392;9.758;2023-07-24T06:39:48;4.82;;;2.75;;
60464;SDS011;46314;52.392;9.758;2023-07-24T06:42:15;3.97;;;2.88;;
60464;SDS011;46314;52.392;9.758;2023-07-24T06:44:41;6.13;;;2.72;;
60464;SDS011;46314;52.392;9.758;2023-07-24T06:47:08;5.25;;;3.30;;
60464;SDS011;46314;52.392;9.758;2023-07-24T06:49:34;5.07;;;2.78;;
60464;SDS011;46314;52.392;9.758;2023-07-24T06:52:02;4.40;;;3.08;;
60464;SDS011;46314;52.392;9.758;2023-07-24T06:54:29;3.72;;;3.30;;
60464;SDS011;46314;52.392;9.758;2023-07-24T06:56:56;4.22;;;3.08;;
60464;SDS011;46314;52.392;9.758;2023-07-24T06:59:22;5.70;;;2.90;;
60464;SDS011;46314;52.392;9.758;2023-07-24T07:01:49;4.85;;;3.35;;
60464;SDS011;46314;52.392;9.758;2023-07-24T07:04:16;4.55;;;2.88;;
60464;SDS011;46314;52.392;9.758;2023-07-24T07:06:42;6.93;;;2.70;;
60464;SDS011;46314;52.392;9.758;2023-07-24T07:09:10;5.07;;;3.20;;
60464;SDS011;46314;52.392;9.758;2023-07-24T07:11:36;6.57;;;3.05;;
60464;SDS011;46314;52.392;9.758;2023-07-24T07:14:03;4.20;;;3.22;;
60464;SDS011;46314;52.392;9.758;2023-07-24T07:16:29;5.22;;;3.88;;
60464;SDS011;46314;52.392;9.758;2023-07-24T07:18:56;4.00;;;3.25;;
60464;SDS011;46314;52.392;9.758;2023-07-24T07:21:23;4.45;;;3.47;;
60464;SDS011;46314;52.392;9.758;2023-07-24T07:23:49;4.38;;;3.60;;
60464;SDS011;46314;52.392;9.758;2023-07-24T07:26:18;5.18;;;3.40;;
60464;SDS011;46314;52.392;9.758;2023-07-24T07:28:45;4.53;;;3.50;;
60464;SDS011;46314;52.392;9.758;2023-07-24T07:31:11;5.22;;;3.70;;
60464;SDS011;46314;52.392;9.758;2023-07-24T07:33:38;6.57;;;3.65;;
60464;SDS011;46314;52.392;9.758;2023-07-24T07:36:04;5.78;;;3.63;;
60464;SDS011;46314;52.392;9.758;2023-07-24T07:38:31;6.45;;;4.22;;
60464;SDS011;46314;52.392;9.758;2023-07-24T07:40:58;10.23;;;4.93;;
60464;SDS011;46314;52.392;9.758;2023-07-24T07:43:26;9.35;;;4.80;;
60464;SDS011;46314;52.392;9.758;2023-07-24T07:45:52;13.80;;;6.00;;
60464;SDS011;46314;52.392;9.758;2023-07-24T07:48:18;10.85;;;6.10;;
60464;SDS011;46314;52.392;9.758;2023-07-24T07:50:49;7.03;;;4.68;;
60464;SDS011;46314;52.392;9.758;2023-07-24T07:53:16;8.55;;;4.85;;
60464;SDS011;46314;52.392;9.758;2023-07-24T07:55:42;8.43;;;4.68;;
60464;SDS011;46314;52.392;9.758;2023-07-24T07:58:09;7.95;;;5.32;;
60464;SDS011;46314;52.392;9.758;2023-07-24T08:00:37;9.35;;;4.57;;
60464;SDS011;46314;52.392;9.758;2023-07-24T08:03:03;6.78;;;4.45;;
60464;SDS011;46314;52.392;9.758;2023-07-24T08:05:30;6.55;;;4.53;;
60464;SDS011;46314;52.392;9.758;2023-07-24T08:07:56;5.05;;;4.07;;
60464;SDS011;46314;52.392;9.758;2023-07-24T08:10:23;5.55;;;4.50;;
60464;SDS011;46314;52.392;9.758;2023-07-24T08:12:50;5.70;;;3.97;;
60464;SDS011;46314;52.392;9.758;2023-07-24T08:15:16;5.05;;;4.55;;
60464;SDS011;46314;52.392;9.758;2023-07-24T08:17:45;5.85;;;4.32;;
60464;SDS011;46314;52.392;9.758;2023-07-24T08:20:12;4.90;;;3.72;;
60464;SDS011;46314;52.392;9.758;2023-07-24T08:22:38;6.10;;;4.38;;
60464;SDS011;46314;52.392;9.758;2023-07-24T08:25:05;7.22;;;4.68;;
60464;SDS011;46314;52.392;9.758;2023-07-24T08:27:33;5.68;;;3.92;;
60464;SDS011;46314;52.392;9.758;2023-07-24T08:30:11;5.85;;;3.78;;
60464;SDS011;46314;52.392;9.758;2023-07-24T08:32:38;5.82;;;3.90;;
60464;SDS011;46314;52.392;9.758;2023-07-24T08:35:07;4.63;;;3.83;;
60464;SDS011;46314;52.392;9.758;2023-07-24T08:37:33;5.68;;;4.32;;
60464;SDS011;46314;52.392;9.758;2023-07-24T08:40:00;4.78;;;3.75;;
60464;SDS011;46314;52.392;9.758;2023-07-24T08:42:26;5.88;;;4.03;;
60464;SDS011;46314;52.392;9.758;2023-07-24T08:44:54;6.68;;;4.10;;
60464;SDS011;46314;52.392;9.758;2023-07-24T08:47:22;6.53;;;4.78;;
60464;SDS011;46314;52.392;9.758;2023-07-24T08:49:50;5.43;;;3.97;;
60464;SDS011;46314;52.392;9.758;2023-07-24T08:52:21;7.43;;;4.10;;
60464;SDS011;46314;52.392;9.758;2023-07-24T08:55:01;6.28;;;4.07;;
60464;SDS011;46314;52.392;9.758;2023-07-24T08:57:28;7.20;;;4.35;;
60464;SDS011;46314;52.392;9.758;2023-07-24T08:59:55;6.30;;;5.53;;
60464;SDS011;46314;52.392;9.758;2023-07-24T09:02:21;5.88;;;5.00;;
60464;SDS011;46314;52.392;9.758;2023-07-24T09:04:48;5.10;;;4.60;;
60464;SDS011;46314;52.392;9.758;2023-07-24T09:07:15;6.10;;;5.22;;
60464;SDS011;46314;52.392;9.758;2023-07-24T09:09:42;6.18;;;4.45;;
60464;SDS011;46314;52.392;9.758;2023-07-24T09:12:12;6.45;;;5.13;;
60464;SDS011;46314;52.392;9.758;2023-07-24T09:14:41;6.60;;;5.90;;
60464;SDS011;46314;52.392;9.758;2023-07-24T09:17:08;5.75;;;5.25;;
60464;SDS011;46314;52.392;9.758;2023-07-24T09:19:36;7.53;;;5.95;;
60464;SDS011;46314;52.392;9.758;2023-07-24T09:22:10;6.90;;;6.22;;
60464;SDS011;46314;52.392;9.758;2023-07-24T09:24:38;7.47;;;5.78;;
60464;SDS011;46314;52.392;9.758;2023-07-24T09:27:16;6.15;;;5.65;;
60464;SDS011;46314;52.392;9.758;2023-07-24T09:29:43;7.05;;;6.38;;
60464;SDS011;46314;52.392;9.758;2023-07-24T09:32:17;7.38;;;5.80;;
60464;SDS011;46314;52.392;9.758;2023-07-24T09:34:45;6.85;;;5.72;;
60464;SDS011;46314;52.392;9.758;2023-07-24T09:37:21;7.03;;;6.05;;
60464;SDS011;46314;52.392;9.758;2023-07-24T09:39:49;8.05;;;6.25;;
60464;SDS011;46314;52.392;9.758;2023-07-24T09:42:16;7.30;;;6.68;;
60464;SDS011;46314;52.392;9.758;2023-07-24T09:44:44;6.93;;;6.30;;
60464;SDS011;46314;52.392;9.758;2023-07-24T09:47:11;7.50;;;6.80;;
60464;SDS011;46314;52.392;9.758;2023-07-24T09:49:58;6.13;;;5.53;;
60464;SDS011;46314;52.392;9.758;2023-07-24T09:52:27;6.80;;;6.20;;
60464;SDS011;46314;52.392;9.758;2023-07-24T09:54:55;7.47;;;6.78;;
60464;SDS011;46314;52.392;9.758;2023-07-24T09:57:28;6.85;;;6.25;;
60464;SDS011;46314;52.392;9.758;2023-07-24T09:59:56;6.70;;;5.90;;
60464;SDS011;46314;52.392;9.758;2023-07-24T10:02:23;7.28;;;6.68;;
60464;SDS011;46314;52.392;9.758;2023-07-24T10:04:50;6.38;;;5.88;;
60464;SDS011;46314;52.392;9.758;2023-07-24T10:07:17;7.07;;;6.05;;
60464;SDS011;46314;52.392;9.758;2023-07-24T10:09:44;6.95;;;5.85;;
60464;SDS011;46314;52.392;9.758;2023-07-24T10:12:11;7.38;;;5.82;;
60464;SDS011;46314;52.392;9.758;2023-07-24T10:14:39;6.70;;;6.00;;
60464;SDS011;46314;52.392;9.758;2023-07-24T10:17:06;7.22;;;6.53;;
60464;SDS011;46314;52.392;9.758;2023-07-24T10:19:36;6.72;;;6.10;;
60464;SDS011;46314;52.392;9.758;2023-07-24T10:22:05;5.95;;;5.35;;
60464;SDS011;46314;52.392;9.758;2023-07-24T10:24:32;6.25;;;5.70;;
60464;SDS011;46314;52.392;9.758;2023-07-24T10:27:07;5.93;;;4.93;;
60464;SDS011;46314;52.392;9.758;2023-07-24T10:29:34;6.32;;;5.80;;
60464;SDS011;46314;52.392;9.758;2023-07-24T10:32:03;7.28;;;5.18;;
60464;SDS011;46314;52.392;9.758;2023-07-24T10:34:37;5.10;;;4.60;;
60464;SDS011;46314;52.392;9.758;2023-07-24T10:37:06;5.60;;;5.10;;
60464;SDS011;46314;52.392;9.758;2023-07-24T10:39:37;5.97;;;4.88;;
60464;SDS011;46314;52.392;9.758;2023-07-24T10:42:05;6.00;;;4.93;;
60464;SDS011;46314;52.392;9.758;2023-07-24T10:44:32;5.70;;;4.60;;
60464;SDS011;46314;52.392;9.758;2023-07-24T10:46:59;5.75;;;5.20;;
60464;SDS011;46314;52.392;9.758;2023-07-24T10:49:27;5.57;;;5.03;;
60464;SDS011;46314;52.392;9.758;2023-07-24T10:51:54;5.88;;;4.82;;
60464;SDS011;46314;52.392;9.758;2023-07-24T10:54:21;5.47;;;4.97;;
60464;SDS011;46314;52.392;9.758;2023-07-24T10:56:48;6.30;;;5.72;;
60464;SDS011;46314;52.392;9.758;2023-07-24T10:59:17;8.45;;;5.35;;
60464;SDS011;46314;52.392;9.758;2023-07-24T11:01:44;5.95;;;5.35;;
60464;SDS011;46314;52.392;9.758;2023-07-24T11:04:10;7.15;;;6.45;;
60464;SDS011;46314;52.392;9.758;2023-07-24T11:06:38;9.15;;;6.53;;
60464;SDS011;46314;52.392;9.758;2023-07-24T11:09:06;5.88;;;5.28;;
60464;SDS011;46314;52.392;9.758;2023-07-24T11:11:33;6.63;;;6.03;;
60464;SDS011;46314;52.392;9.758;2023-07-24T11:14:02;7.30;;;6.38;;
60464;SDS011;46314;52.392;9.758;2023-07-24T11:16:29;7.72;;;6.35;;
60464;SDS011;46314;52.392;9.758;2023-07-24T11:18:56;7.30;;;6.57;;
60464;SDS011;46314;52.392;9.758;2023-07-24T11:21:23;7.80;;;6.97;;
60464;SDS011;46314;52.392;9.758;2023-07-24T11:23:51;7.35;;;6.65;;
60464;SDS011;46314;52.392;9.758;2023-07-24T11:26:19;6.57;;;5.97;;
60464;SDS011;46314;52.392;9.758;2023-07-24T11:28:46;7.75;;;6.10;;
60464;SDS011;46314;52.392;9.758;2023-07-24T11:31:12;6.30;;;5.72;;
60464;SDS011;46314;52.392;9.758;2023-07-24T11:33:39;6.28;;;5.68;;
60464;SDS011;46314;52.392;9.758;2023-07-24T11:36:06;6.50;;;5.90;;
60464;SDS011;46314;52.392;9.758;2023-07-24T11:38:33;7.18;;;6.50;;
60464;SDS011;46314;52.392;9.758;2023-07-24T11:41:01;4.60;;;4.20;;
60464;SDS011;46314;52.392;9.758;2023-07-24T11:43:30;5.35;;;3.47;;
60464;SDS011;46314;52.392;9.758;2023-07-24T11:45:57;3.20;;;3.00;;
60464;SDS011;46314;52.392;9.758;2023-07-24T11:48:24;2.80;;;2.60;;
60464;SDS011;46314;52.392;9.758;2023-07-24T11:50:51;3.55;;;2.63;;
60464;SDS011;46314;52.392;9.758;2023-07-24T11:53:20;3.17;;;2.88;;
60464;SDS011;46314;52.392;9.758;2023-07-24T11:55:48;4.78;;;3.58;;
60464;SDS011;46314;52.392;9.758;2023-07-24T11:58:16;6.07;;;3.80;;
60464;SDS011;46314;52.392;9.758;2023-07-24T12:00:43;5.05;;;4.55;;
60464;SDS011;46314;52.392;9.758;2023-07-24T12:03:12;6.43;;;4.53;;
60464;SDS011;46314;52.392;9.758;2023-07-24T12:05:39;4.90;;;4.40;;
60464;SDS011;46314;52.392;9.758;2023-07-24T12:08:06;6.57;;;4.85;;
60464;SDS011;46314;52.392;9.758;2023-07-24T12:10:35;5.05;;;4.55;;
60464;SDS011;46314;52.392;9.758;2023-07-24T12:13:06;5.28;;;4.78;;
60464;SDS011;46314;52.392;9.758;2023-07-24T12:15:34;6.15;;;5.57;;
60464;SDS011;46314;52.392;9.758;2023-07-24T12:18:01;6.10;;;5.50;;
60464;SDS011;46314;52.392;9.758;2023-07-24T12:20:30;6.00;;;5.40;;
60464;SDS011;46314;52.392;9.758;2023-07-24T12:22:57;6.78;;;6.05;;
60464;SDS011;46314;52.392;9.758;2023-07-24T12:25:24;6.20;;;5.60;;
60464;SDS011;46314;52.392;9.758;2023-07-24T12:27:50;6.65;;;5.90;;
60464;SDS011;46314;52.392;9.758;2023-07-24T12:30:17;6.93;;;6.28;;
60464;SDS011;46314;52.392;9.758;2023-07-24T12:32:46;7.55;;;6.53;;
60464;SDS011;46314;52.392;9.758;2023-07-24T12:35:12;7.28;;;6.10;;
60464;SDS011;46314;52.392;9.758;2023-07-24T12:37:42;7.00;;;6.35;;
60464;SDS011;46314;52.392;9.758;2023-07-24T12:40:09;9.82;;;6.72;;
60464;SDS011;46314;52.392;9.758;2023-07-24T12:42:36;7.22;;;6.53;;
60464;SDS011;46314;52.392;9.758;2023-07-24T12:45:03;7.72;;;6.57;;
60464;SDS011;46314;52.392;9.758;2023-07-24T12:47:31;9.40;;;7.38;;
60464;SDS011;46314;52.392;9.758;2023-07-24T12:50:00;7.57;;;6.82;;
60464;SDS011;46314;52.392;9.758;2023-07-24T12:52:28;7.95;;;7.20;;
60464;SDS011;46314;52.392;9.758;2023-07-24T12:54:55;9.88;;;8.88;;
60464;SDS011;46314;52.392;9.758;2023-07-24T12:57:27;10.60;;;9.00;;
60464;SDS011;46314;52.392;9.758;2023-07-24T12:59:54;8.68;;;7.68;;
60464;SDS011;46314;52.392;9.758;2023-07-24T13:02:21;8.63;;;7.82;;
60464;SDS011;46314;52.392;9.758;2023-07-24T13:04:47;9.40;;;8.38;;
60464;SDS011;46314;52.392;9.758;2023-07-24T13:07:15;8.95;;;7.55;;
60464;SDS011;46314;52.392;9.758;2023-07-24T13:09:42;7.82;;;6.93;;
60464;SDS011;46314;52.392;9.758;2023-07-24T13:12:08;7.70;;;7.00;;
60464;SDS011;46314;52.392;9.758;2023-07-24T13:14:35;8.32;;;6.97;;
60464;SDS011;46314;52.392;9.758;2023-07-24T13:17:05;7.47;;;6.75;;
60464;SDS011;46314;52.392;9.758;2023-07-24T13:19:32;7.53;;;6.85;;
60464;SDS011;46314;52.392;9.758;2023-07-24T13:21:58;7.10;;;6.47;;
60464;SDS011;46314;52.392;9.758;2023-07-24T13:24:26;7.40;;;6.70;;
60464;SDS011;46314;52.392;9.758;2023-07-24T13:26:53;7.20;;;6.60;;
60464;SDS011;46314;52.392;9.758;2023-07-24T13:29:19;5.85;;;5.28;;
60464;SDS011;46314;52.392;9.758;2023-07-24T13:31:49;6.40;;;5.80;;
60464;SDS011;46314;52.392;9.758;2023-07-24T13:34:16;6.38;;;5.78;;
60464;SDS011;46314;52.392;9.758;2023-07-24T13:36:42;6.53;;;5.93;;
60464;SDS011;46314;52.392;9.758;2023-07-24T13:39:09;5.78;;;5.18;;
60464;SDS011;46314;52.392;9.758;2023-07-24T13:41:37;6.68;;;5.05;;
60464;SDS011;46314;52.392;9.758;2023-07-24T13:44:03;4.63;;;4.20;;
60464;SDS011;46314;52.392;9.758;2023-07-24T13:46:30;4.78;;;4.38;;
60464;SDS011;46314;52.392;9.758;2023-07-24T13:48:56;4.60;;;4.20;;
60464;SDS011;46314;52.392;9.758;2023-07-24T13:51:23;4.22;;;3.85;;
60464;SDS011;46314;52.392;9.758;2023-07-24T13:53:49;4.25;;;3.85;;
60464;SDS011;46314;52.392;9.758;2023-07-24T13:56:16;3.95;;;3.55;;
60464;SDS011;46314;52.392;9.758;2023-07-24T13:58:44;4.45;;;4.05;;
60464;SDS011;46314;52.392;9.758;2023-07-24T14:01:10;4.10;;;3.70;;
60464;SDS011;46314;52.392;9.758;2023-07-24T14:03:37;4.53;;;3.50;;
60464;SDS011;46314;52.392;9.758;2023-07-24T14:06:03;6.47;;;4.03;;
60464;SDS011;46314;52.392;9.758;2023-07-24T14:08:30;5.55;;;4.03;;
60464;SDS011;46314;52.392;9.758;2023-07-24T14:10:56;7.13;;;4.22;;
60464;SDS011;46314;52.392;9.758;2023-07-24T14:13:23;9.18;;;4.80;;
60464;SDS011;46314;52.392;9.758;2023-07-24T14:15:51;5.10;;;4.60;;
60464;SDS011;46314;52.392;9.758;2023-07-24T14:18:17;4.75;;;4.45;;
60464;SDS011;46314;52.392;9.758;2023-07-24T14:20:44;6.05;;;5.50;;
60464;SDS011;46314;52.392;9.758;2023-07-24T14:23:10;6.05;;;5.07;;
60464;SDS011;46314;52.392;9.758;2023-07-24T14:25:37;5.57;;;5.07;;
60464;SDS011;46314;52.392;9.758;2023-07-24T14:28:03;6.00;;;5.15;;
60464;SDS011;46314;52.392;9.758;2023-07-24T14:30:30;5.38;;;4.88;;
60464;SDS011;46314;52.392;9.758;2023-07-24T14:32:58;6.18;;;5.55;;
60464;SDS011;46314;52.392;9.758;2023-07-24T14:35:24;5.38;;;4.88;;
60464;SDS011;46314;52.392;9.758;2023-07-24T14:37:51;4.85;;;4.10;;
60464;SDS011;46314;52.392;9.758;2023-07-24T14:40:17;4.47;;;3.90;;
60464;SDS011;46314;52.392;9.758;2023-07-24T14:42:44;4.40;;;4.03;;
60464;SDS011;46314;52.392;9.758;2023-07-24T14:45:10;5.13;;;4.28;;
60464;SDS011;46314;52.392;9.758;2023-07-24T14:47:37;4.80;;;4.30;;
60464;SDS011;46314;52.392;9.758;2023-07-24T14:50:06;4.72;;;4.22;;